Time;durP1;ratioP1;P1;durP2;ratioP2;P2;SDS_P1;SDS_P2;PMS_P1;PMS_P2;Temp;Humidity;BMP_temperature;BMP_pressure;BME280_temperature;BME280_humidity;BME280_pressure;Samples;Min_cycle;Max_cycle;Signal;HPM_P1;HPM_P2
2022/09/16 00:00:23;;;;;;;1.25;0.20;;;;;;;;;;5025481;28;20041;-74
2022/09/16 00:02:52;;;;;;;0.73;0.20;;;;;;;;;;5023802;28;20042;-74
2022/09/16 00:05:18;;;;;;;0.28;0.20;;;;;;;;;;5024538;28;20473;-75
2022/09/16 00:07:44;;;;;;;0.10;0.10;;;;;;;;;;5025558;28;20061;-74
2022/09/16 00:10:10;;;;;;;0.40;0.13;;;;;;;;;;5024653;28;20064;-74
2022/09/16 00:12:36;;;;;;;0.30;0.20;;;;;;;;;;5024186;28;20064;-74
2022/09/16 00:15:03;;;;;;;0.20;0.20;;;;;;;;;;5023545;28;20049;-74
2022/09/16 00:17:30;;;;;;;1.92;0.50;;;;;;;;;;5025069;28;20041;-75
2022/09/16 00:19:56;;;;;;;0.10;0.10;;;;;;;;;;5025458;28;20128;-75
2022/09/16 00:22:22;;;;;;;0.22;0.05;;;;;;;;;;5025145;28;20404;-74
2022/09/16 00:24:49;;;;;;;0.57;0.10;;;;;;;;;;5025427;28;20050;-75
2022/09/16 00:27:15;;;;;;;0.52;0.10;;;;;;;;;;5024500;28;20041;-74
2022/09/16 00:29:41;;;;;;;0.30;0.10;;;;;;;;;;5024893;28;20049;-74
2022/09/16 00:32:07;;;;;;;0.20;0.20;;;;;;;;;;5025243;28;20080;-74
2022/09/16 00:34:33;;;;;;;0.57;0.00;;;;;;;;;;5026129;28;20073;-74
2022/09/16 00:37:02;;;;;;;0.32;0.10;;;;;;;;;;5024157;28;20112;-74
2022/09/16 00:39:28;;;;;;;0.03;0.00;;;;;;;;;;5024468;28;20041;-74
2022/09/16 00:41:54;;;;;;;0.85;0.10;;;;;;;;;;5021929;28;20053;-74
2022/09/16 00:44:39;;;;;;;0.05;0.00;;;;;;;;;;5026337;28;20052;-74
2022/09/16 00:47:05;;;;;;;0.00;0.00;;;;;;;;;;5024898;28;20041;-74
2022/09/16 00:49:31;;;;;;;0.38;0.10;;;;;;;;;;5023932;28;20518;-74
2022/09/16 00:52:00;;;;;;;0.45;0.22;;;;;;;;;;5024806;28;20049;-74
2022/09/16 00:54:26;;;;;;;0.20;0.00;;;;;;;;;;5023880;28;20064;-74
2022/09/16 00:56:53;;;;;;;0.30;0.20;;;;;;;;;;5025753;28;20045;-74
2022/09/16 00:59:23;;;;;;;0.20;0.10;;;;;;;;;;5024447;28;20128;-75
2022/09/16 01:01:50;;;;;;;0.15;0.10;;;;;;;;;;5025058;28;20049;-74
2022/09/16 01:04:18;;;;;;;0.20;0.10;;;;;;;;;;5024423;28;20041;-74
2022/09/16 01:06:45;;;;;;;0.17;0.10;;;;;;;;;;5025696;28;20394;-74
2022/09/16 01:09:11;;;;;;;1.70;0.15;;;;;;;;;;5024282;28;20452;-74
2022/09/16 01:11:37;;;;;;;0.10;0.03;;;;;;;;;;5024424;28;20256;-74
2022/09/16 01:17:00;;;;;;;0.13;0.08;;;;;;;;;;4996251;28;20540;-74
2022/09/16 01:19:45;;;;;;;0.35;0.30;;;;;;;;;;5024223;28;20322;-74
2022/09/16 01:22:30;;;;;;;0.08;0.08;;;;;;;;;;5024189;28;20721;-74
2022/09/16 01:25:04;;;;;;;0.90;0.30;;;;;;;;;;5023741;28;20180;-73
2022/09/16 01:27:49;;;;;;;1.25;0.50;;;;;;;;;;5024826;28;20034;-74
2022/09/16 01:30:30;;;;;;;0.20;0.10;;;;;;;;;;5022959;28;20056;-74
2022/09/16 01:33:03;;;;;;;0.35;0.03;;;;;;;;;;5024773;28;20057;-74
2022/09/16 01:35:32;;;;;;;0.68;0.13;;;;;;;;;;5023061;28;20690;-74
2022/09/16 01:38:17;;;;;;;0.30;0.00;;;;;;;;;;5024779;28;20137;-73
2022/09/16 01:40:53;;;;;;;0.10;0.10;;;;;;;;;;5024296;28;20054;-74
2022/09/16 01:43:21;;;;;;;0.98;0.10;;;;;;;;;;5024387;28;20038;-74
2022/09/16 01:45:55;;;;;;;0.10;0.08;;;;;;;;;;5023536;28;20053;-74
2022/09/16 01:48:41;;;;;;;0.82;0.30;;;;;;;;;;5023019;28;20037;-74
2022/09/16 01:51:13;;;;;;;0.95;0.40;;;;;;;;;;5022056;28;20377;-73
2022/09/16 01:53:45;;;;;;;0.50;0.40;;;;;;;;;;5023666;28;20491;-74
2022/09/16 01:56:19;;;;;;;0.63;0.35;;;;;;;;;;5024266;28;20049;-74
2022/09/16 01:58:45;;;;;;;1.17;0.40;;;;;;;;;;5018893;28;20060;-74
2022/09/16 02:01:22;;;;;;;0.80;0.30;;;;;;;;;;5022546;28;20037;-74
2022/09/16 02:03:51;;;;;;;0.63;0.30;;;;;;;;;;5019084;28;20081;-74
2022/09/16 02:06:20;;;;;;;0.98;0.32;;;;;;;;;;5022710;28;20118;-74
2022/09/16 02:08:49;;;;;;;0.20;0.20;;;;;;;;;;5019834;28;20045;-74
2022/09/16 02:11:16;;;;;;;0.22;0.20;;;;;;;;;;5021930;28;20124;-74
2022/09/16 02:13:45;;;;;;;2.15;0.30;;;;;;;;;;5024411;28;20049;-74
2022/09/16 02:16:13;;;;;;;0.28;0.20;;;;;;;;;;5022121;28;20492;-74
2022/09/16 02:18:41;;;;;;;0.10;0.10;;;;;;;;;;5022634;28;20052;-74
2022/09/16 02:21:10;;;;;;;1.48;0.22;;;;;;;;;;5023750;28;20049;-74
2022/09/16 02:23:40;;;;;;;0.35;0.10;;;;;;;;;;5022725;28;20132;-73
2022/09/16 02:26:09;;;;;;;0.60;0.30;;;;;;;;;;5022064;28;20265;-74
2022/09/16 02:28:37;;;;;;;0.50;0.30;;;;;;;;;;5020730;28;20132;-73
2022/09/16 02:31:06;;;;;;;0.32;0.10;;;;;;;;;;5023324;28;20132;-74
2022/09/16 02:33:47;;;;;;;1.05;0.50;;;;;;;;;;5023408;28;20048;-74
2022/09/16 02:36:15;;;;;;;2.20;0.20;;;;;;;;;;5038858;28;20480;-74
2022/09/16 02:38:43;;;;;;;0.32;0.20;;;;;;;;;;5022147;28;20076;-74
2022/09/16 02:41:13;;;;;;;1.08;0.20;;;;;;;;;;5021866;28;20156;-74
2022/09/16 02:43:40;;;;;;;0.47;0.20;;;;;;;;;;5022456;28;20061;-74
2022/09/16 02:46:09;;;;;;;0.85;0.10;;;;;;;;;;5022831;28;20042;-74
2022/09/16 02:48:35;;;;;;;0.28;0.10;;;;;;;;;;5023510;28;20151;-74
2022/09/16 02:51:20;;;;;;;0.20;0.10;;;;;;;;;;5022547;28;20642;-74
2022/09/16 02:53:50;;;;;;;0.32;0.10;;;;;;;;;;5018468;28;20073;-74
2022/09/16 02:56:26;;;;;;;0.38;0.15;;;;;;;;;;5022575;28;20060;-74
2022/09/16 02:58:53;;;;;;;0.00;0.00;;;;;;;;;;5021529;28;20095;-74
2022/09/16 03:01:19;;;;;;;0.47;0.10;;;;;;;;;;5022328;28;20519;-74
2022/09/16 03:03:45;;;;;;;0.20;0.10;;;;;;;;;;5024374;28;20084;-73
2022/09/16 03:06:14;;;;;;;0.30;0.10;;;;;;;;;;5021905;28;20053;-73
2022/09/16 03:08:41;;;;;;;0.40;0.10;;;;;;;;;;5022939;28;20483;-73
2022/09/16 03:11:17;;;;;;;0.40;0.13;;;;;;;;;;5021800;28;20492;-73
2022/09/16 03:13:53;;;;;;;0.28;0.15;;;;;;;;;;5023580;28;20042;-73
2022/09/16 03:16:40;;;;;;;0.03;0.03;;;;;;;;;;5022271;28;20052;-73
2022/09/16 03:19:29;;;;;;;0.98;0.28;;;;;;;;;;5021272;28;20451;-73
2022/09/16 03:22:10;;;;;;;0.50;0.20;;;;;;;;;;5012571;28;20060;-73
2022/09/16 03:24:51;;;;;;;0.38;0.08;;;;;;;;;;5024015;28;20073;-73
2022/09/16 03:27:19;;;;;;;0.20;0.10;;;;;;;;;;5022418;28;20049;-73
2022/09/16 03:30:05;;;;;;;0.38;0.13;;;;;;;;;;5023640;28;20037;-73
2022/09/16 03:32:34;;;;;;;0.52;0.20;;;;;;;;;;5020722;28;20119;-73
2022/09/16 03:35:03;;;;;;;0.20;0.13;;;;;;;;;;5021667;28;20038;-73
2022/09/16 03:37:33;;;;;;;0.95;0.40;;;;;;;;;;5022385;28;20045;-74
2022/09/16 03:40:02;;;;;;;0.40;0.20;;;;;;;;;;5022315;28;20061;-73
2022/09/16 03:42:28;;;;;;;0.22;0.20;;;;;;;;;;5021260;28;20056;-74
2022/09/16 03:44:54;;;;;;;1.05;0.35;;;;;;;;;;5023828;28;20099;-73
2022/09/16 03:47:20;;;;;;;0.17;0.10;;;;;;;;;;5023685;28;20037;-73
2022/09/16 03:49:46;;;;;;;0.65;0.10;;;;;;;;;;5024571;28;20081;-73
2022/09/16 03:52:12;;;;;;;0.47;0.15;;;;;;;;;;5025288;28;20381;-73
2022/09/16 03:54:38;;;;;;;0.32;0.15;;;;;;;;;;5026093;28;20059;-73
2022/09/16 03:57:05;;;;;;;0.50;0.20;;;;;;;;;;5025405;28;20080;-73
2022/09/16 03:59:31;;;;;;;1.10;0.38;;;;;;;;;;5025582;28;20037;-73
2022/09/16 04:01:57;;;;;;;0.20;0.10;;;;;;;;;;5024918;28;20069;-73
2022/09/16 04:04:23;;;;;;;0.32;0.20;;;;;;;;;;5025222;28;20460;-73
2022/09/16 04:06:49;;;;;;;0.10;0.10;;;;;;;;;;5027295;28;20049;-73
2022/09/16 04:09:15;;;;;;;0.13;0.10;;;;;;;;;;5024962;28;20053;-73
2022/09/16 04:11:41;;;;;;;0.40;0.20;;;;;;;;;;5025153;28;20075;-73
2022/09/16 04:14:08;;;;;;;0.95;0.20;;;;;;;;;;5026638;28;20049;-73
2022/09/16 04:16:34;;;;;;;0.63;0.25;;;;;;;;;;5025592;28;20037;-73
2022/09/16 04:19:00;;;;;;;0.82;0.30;;;;;;;;;;5024922;28;20078;-73
2022/09/16 04:21:26;;;;;;;0.20;0.03;;;;;;;;;;5026851;28;20048;-73
2022/09/16 04:23:53;;;;;;;0.22;0.00;;;;;;;;;;5027206;28;20111;-73
2022/09/16 04:26:19;;;;;;;0.50;0.15;;;;;;;;;;5023459;28;20128;-73
2022/09/16 04:28:46;;;;;;;0.57;0.10;;;;;;;;;;5026983;28;20060;-73
2022/09/16 04:31:14;;;;;;;0.20;0.15;;;;;;;;;;5025452;28;20049;-74
2022/09/16 04:33:40;;;;;;;0.25;0.13;;;;;;;;;;5025320;28;20552;-73
2022/09/16 04:36:07;;;;;;;0.85;0.20;;;;;;;;;;5025369;28;20513;-73
2022/09/16 04:38:33;;;;;;;0.05;0.05;;;;;;;;;;5026064;28;20084;-74
2022/09/16 04:41:03;;;;;;;0.40;0.10;;;;;;;;;;5026413;28;20065;-74
2022/09/16 04:43:29;;;;;;;0.10;0.10;;;;;;;;;;5025757;28;20091;-73
2022/09/16 04:45:55;;;;;;;0.50;0.22;;;;;;;;;;5025047;28;20561;-74
2022/09/16 04:48:21;;;;;;;0.30;0.13;;;;;;;;;;5026308;28;20480;-73
2022/09/16 04:50:47;;;;;;;0.20;0.00;;;;;;;;;;5026842;28;20100;-73
2022/09/16 04:53:13;;;;;;;0.82;0.10;;;;;;;;;;5025594;28;20485;-73
2022/09/16 04:55:39;;;;;;;0.17;0.10;;;;;;;;;;5025363;28;20059;-73
2022/09/16 04:58:05;;;;;;;0.10;0.03;;;;;;;;;;5024812;28;20247;-73
2022/09/16 05:00:31;;;;;;;0.22;0.10;;;;;;;;;;5020752;28;20111;-73
2022/09/16 05:02:57;;;;;;;0.10;0.10;;;;;;;;;;5025905;28;20045;-73
2022/09/16 05:05:23;;;;;;;0.50;0.00;;;;;;;;;;5025179;28;20084;-73
2022/09/16 05:07:49;;;;;;;0.20;0.00;;;;;;;;;;5025179;28;20462;-74
2022/09/16 05:10:15;;;;;;;0.00;0.00;;;;;;;;;;5023514;28;20057;-73
2022/09/16 05:12:41;;;;;;;0.52;0.20;;;;;;;;;;5024857;28;20045;-73
2022/09/16 05:15:08;;;;;;;0.13;0.05;;;;;;;;;;5025274;28;20518;-73
2022/09/16 05:17:34;;;;;;;0.25;0.10;;;;;;;;;;5023526;28;20136;-73
2022/09/16 05:20:00;;;;;;;0.43;0.15;;;;;;;;;;5025342;28;20125;-73
2022/09/16 05:22:26;;;;;;;0.25;0.20;;;;;;;;;;5023116;28;20041;-73
2022/09/16 05:24:52;;;;;;;0.20;0.20;;;;;;;;;;5024289;28;20055;-73
2022/09/16 05:27:18;;;;;;;0.20;0.15;;;;;;;;;;5024286;28;20041;-73
2022/09/16 05:29:44;;;;;;;0.20;0.10;;;;;;;;;;5024838;28;20485;-73
2022/09/16 05:32:10;;;;;;;2.88;0.35;;;;;;;;;;5017800;28;20042;-73
2022/09/16 05:34:36;;;;;;;0.50;0.50;;;;;;;;;;5022250;28;20041;-73
2022/09/16 05:37:02;;;;;;;0.47;0.13;;;;;;;;;;5021078;28;20045;-73
2022/09/16 05:39:28;;;;;;;0.75;0.20;;;;;;;;;;5024119;28;20611;-73
2022/09/16 05:41:55;;;;;;;0.60;0.20;;;;;;;;;;5023574;28;20057;-73
2022/09/16 05:44:22;;;;;;;0.32;0.10;;;;;;;;;;5025888;28;20099;-74
2022/09/16 05:46:48;;;;;;;0.98;0.15;;;;;;;;;;5022454;28;20449;-73
2022/09/16 05:49:19;;;;;;;0.40;0.20;;;;;;;;;;5019669;28;20049;-66
2022/09/16 05:51:45;;;;;;;0.85;0.10;;;;;;;;;;5024434;28;20125;-64
2022/09/16 05:54:11;;;;;;;0.20;0.20;;;;;;;;;;5025083;28;20077;-72
2022/09/16 05:56:37;;;;;;;0.70;0.25;;;;;;;;;;5025653;28;20645;-69
2022/09/16 05:59:03;;;;;;;0.20;0.17;;;;;;;;;;5026371;28;20135;-66
2022/09/16 06:01:33;;;;;;;0.85;0.15;;;;;;;;;;5025743;28;20053;-76
2022/09/16 06:04:01;;;;;;;0.47;0.20;;;;;;;;;;5024053;28;20081;-79
2022/09/16 06:06:28;;;;;;;2.03;0.43;;;;;;;;;;5024883;28;20320;-75
2022/09/16 06:08:58;;;;;;;2.25;0.43;;;;;;;;;;5023627;28;20099;-77
2022/09/16 06:11:25;;;;;;;0.47;0.20;;;;;;;;;;5019223;28;20060;-73
2022/09/16 06:13:55;;;;;;;0.28;0.17;;;;;;;;;;5018722;28;20637;-78
2022/09/16 06:16:21;;;;;;;0.98;0.17;;;;;;;;;;5023760;28;20060;-75
2022/09/16 06:18:47;;;;;;;0.20;0.20;;;;;;;;;;5025150;28;20484;-77
2022/09/16 06:21:13;;;;;;;0.40;0.25;;;;;;;;;;5024664;28;20135;-77
2022/09/16 06:23:39;;;;;;;0.32;0.10;;;;;;;;;;5024451;28;20041;-77
2022/09/16 06:26:07;;;;;;;0.13;0.10;;;;;;;;;;5022817;28;20381;-77
2022/09/16 06:28:33;;;;;;;0.93;0.20;;;;;;;;;;5019962;28;20717;-76
2022/09/16 06:31:06;;;;;;;4.15;0.47;;;;;;;;;;5004327;28;20052;-75
2022/09/16 06:33:33;;;;;;;0.90;0.50;;;;;;;;;;5023100;28;20386;-75
2022/09/16 06:36:02;;;;;;;1.05;0.50;;;;;;;;;;5023173;28;20056;-76
2022/09/16 06:38:28;;;;;;;1.45;0.50;;;;;;;;;;5022701;28;20173;-76
2022/09/16 06:40:57;;;;;;;0.82;0.30;;;;;;;;;;5024167;28;20128;-75
2022/09/16 06:43:23;;;;;;;2.00;0.50;;;;;;;;;;5019165;28;20048;-75
2022/09/16 06:45:49;;;;;;;0.90;0.20;;;;;;;;;;5016497;28;20037;-73
2022/09/16 06:48:15;;;;;;;2.72;0.52;;;;;;;;;;5005401;28;20053;-74
2022/09/16 06:50:41;;;;;;;1.65;0.43;;;;;;;;;;5004395;28;20053;-74
2022/09/16 06:53:07;;;;;;;2.70;0.50;;;;;;;;;;5020683;28;20052;-74
2022/09/16 06:55:33;;;;;;;2.13;0.68;;;;;;;;;;5018953;28;20048;-75
2022/09/16 06:57:59;;;;;;;1.90;0.50;;;;;;;;;;5023888;28;20053;-74
2022/09/16 07:00:25;;;;;;;3.17;0.88;;;;;;;;;;5016795;28;20132;-75
2022/09/16 07:02:51;;;;;;;1.25;0.50;;;;;;;;;;5020379;28;20129;-74
2022/09/16 07:05:17;;;;;;;0.82;0.38;;;;;;;;;;5014039;28;20045;-75
2022/09/16 07:07:43;;;;;;;0.55;0.30;;;;;;;;;;5018564;28;20458;-75
2022/09/16 07:10:09;;;;;;;2.35;0.40;;;;;;;;;;5021744;28;20072;-75
2022/09/16 07:12:35;;;;;;;0.68;0.30;;;;;;;;;;5022057;28;20120;-74
2022/09/16 07:15:02;;;;;;;1.27;0.30;;;;;;;;;;5006214;28;20046;-74
2022/09/16 07:17:28;;;;;;;1.15;0.45;;;;;;;;;;5013638;28;20132;-74
2022/09/16 07:19:54;;;;;;;1.10;0.45;;;;;;;;;;5019460;28;20060;-74
2022/09/16 07:22:20;;;;;;;1.17;0.35;;;;;;;;;;5015580;28;20399;-74
2022/09/16 07:24:46;;;;;;;0.90;0.30;;;;;;;;;;5023169;28;20037;-74
2022/09/16 07:27:13;;;;;;;2.40;0.47;;;;;;;;;;5026024;28;20068;-74
2022/09/16 07:29:39;;;;;;;3.33;0.60;;;;;;;;;;5026810;28;20766;-74
2022/09/16 07:32:05;;;;;;;3.17;0.65;;;;;;;;;;5024141;28;20128;-73
2022/09/16 07:34:31;;;;;;;1.98;0.68;;;;;;;;;;5026609;28;20586;-75
2022/09/16 07:36:57;;;;;;;;;;;;;;;;;;5024872;28;20045;-78
2022/09/16 07:39:24;;;;;;;;;;;;;;;;;;5026082;28;19975;-78
2022/09/16 07:41:50;;;;;;;;;;;;;;;;;;5026853;28;19936;-77
2022/09/16 07:44:16;;;;;;;;;;;;;;;;;;5025270;28;20437;-77
2022/09/16 07:46:42;;;;;;;;;;;;;;;;;;5026409;28;19929;-77
2022/09/16 07:49:08;;;;;;;;;;;;;;;;;;5024954;28;19983;-77
2022/09/16 07:51:34;;;;;;;;;;;;;;;;;;5025424;28;19964;-76
2022/09/16 07:54:01;;;;;;;;;;;;;;;;;;5028098;28;20027;-76
2022/09/16 07:56:27;;;;;;;;;;;;;;;;;;5025911;28;20311;-77
2022/09/16 07:58:53;;;;;;;;;;;;;;;;;;5022391;28;19936;-77
2022/09/16 08:01:19;;;;;;;;;;;;;;;;;;5023751;28;20307;-78
2022/09/16 08:03:45;;;;;;;;;;;;;;;;;;5024244;28;19936;-79
2022/09/16 08:06:14;;;;;;;;;;;;;;;;;;5023617;28;19925;-77
2022/09/16 08:08:40;;;;;;;;;;;;;;;;;;5028207;28;20009;-77
2022/09/16 08:11:06;;;;;;;;;;;;;;;;;;5027144;28;19944;-77
2022/09/16 08:13:32;;;;;;;;;;;;;;;;;;5018591;28;20656;-78
2022/09/16 08:15:58;;;;;;;;;;;;;;;;;;5025576;28;19929;-78
2022/09/16 08:18:24;;;;;;;;;;;;;;;;;;5023517;28;19932;-79
2022/09/16 08:20:50;;;;;;;;;;;;;;;;;;5024131;28;19925;-78
2022/09/16 08:23:16;;;;;;;;;;;;;;;;;;5026364;28;20418;-78
2022/09/16 08:25:42;;;;;;;;;;;;;;;;;;5026606;28;19971;-78
2022/09/16 08:28:07;;;;;;;;;;;;;;;;;;5024152;28;19929;-79
2022/09/16 08:30:33;;;;;;;;;;;;;;;;;;5024700;28;19978;-79
2022/09/16 08:32:59;;;;;;;;;;;;;;;;;;5026442;28;19925;-77
2022/09/16 08:35:25;;;;;;;;;;;;;;;;;;5025641;28;19972;-77
2022/09/16 08:37:51;;;;;;;;;;;;;;;;;;5018629;28;20008;-76
2022/09/16 08:40:17;;;;;;;;;;;;;;;;;;5025128;28;20700;-75
2022/09/16 08:42:43;;;;;;;;;;;;;;;;;;5024585;28;19925;-77
2022/09/16 08:45:09;;;;;;;;;;;;;;;;;;5023929;28;19935;-77
2022/09/16 08:47:35;;;;;;;;;;;;;;;;;;5024527;28;19939;-75
2022/09/16 08:50:01;;;;;;;;;;;;;;;;;;5020773;28;20379;-75
2022/09/16 08:52:27;;;;;;;;;;;;;;;;;;5023484;28;19929;-76
2022/09/16 08:54:53;;;;;;;;;;;;;;;;;;5026629;28;20568;-77
2022/09/16 08:57:19;;;;;;;;;;;;;;;;;;5019279;28;19928;-79
2022/09/16 08:59:45;;;;;;;;;;;;;;;;;;5026288;28;20474;-78
2022/09/16 09:02:11;;;;;;;;;;;;;;;;;;5023336;28;19926;-77
2022/09/16 09:04:37;;;;;;;;;;;;;;;;;;5025011;28;19929;-78
2022/09/16 09:07:03;;;;;;;;;;;;;;;;;;5022134;28;20449;-78
2022/09/16 09:09:29;;;;;;;;;;;;;;;;;;5023722;28;19936;-79
2022/09/16 09:11:55;;;;;;;;;;;;;;;;;;5016325;28;19933;-78
2022/09/16 09:14:21;;;;;;;;;;;;;;;;;;5023348;28;19925;-79
2022/09/16 09:16:47;;;;;;;;;;;;;;;;;;5025358;28;20378;-78
2022/09/16 09:19:13;;;;;;;;;;;;;;;;;;5021256;28;19933;-76
2022/09/16 09:21:39;;;;;;;;;;;;;;;;;;5018408;28;19933;-75
2022/09/16 09:24:05;;;;;;;;;;;;;;;;;;5021868;28;19925;-76
2022/09/16 09:26:31;;;;;;;;;;;;;;;;;;5023948;28;20015;-75
2022/09/16 09:28:57;;;;;;;;;;;;;;;;;;5020413;28;20379;-75
2022/09/16 09:31:23;;;;;;;;;;;;;;;;;;5022530;28;19925;-74
2022/09/16 09:33:55;;;;;;;5.88;1.27;;;;;;;;;;5021987;28;19925;-75
2022/09/16 09:36:21;;;;;;;;;;;;;;;;;;5017759;28;20037;-75
2022/09/16 09:39:00;;;;;;;5.28;1.52;;;;;;;;;;5023964;28;20478;-73
2022/09/16 09:41:26;;;;;;;;;;;;;;;;;;5023484;28;20045;-73
2022/09/16 09:43:52;;;;;;;;;;;;;;;;;;5024378;28;19925;-74
2022/09/16 09:46:18;;;;;;;;;;;;;;;;;;5023527;28;19924;-73
2022/09/16 09:48:43;;;;;;;;;;;;;;;;;;5021215;28;19925;-72
2022/09/16 09:51:09;;;;;;;;;;;;;;;;;;5023525;28;19921;-73
2022/09/16 09:53:35;;;;;;;;;;;;;;;;;;5025355;28;19924;-73
2022/09/16 09:56:01;;;;;;;;;;;;;;;;;;5019136;28;19921;-75
2022/09/16 09:58:27;;;;;;;;;;;;;;;;;;5023543;28;20002;-74
2022/09/16 10:00:56;;;;;;;;;;;;;;;;;;5023081;28;19921;-71
2022/09/16 10:03:23;;;;;;;5.07;1.48;;;;;;;;;;5023402;28;19994;-75
2022/09/16 10:05:49;;;;;;;7.20;1.52;;;;;;;;;;5021143;28;20041;-74
2022/09/16 10:08:22;;;;;;;5.05;1.35;;;;;;;;;;5021811;28;20278;-74
2022/09/16 10:10:52;;;;;;;4.50;0.95;;;;;;;;;;5022687;28;20507;-75
2022/09/16 10:13:19;;;;;;;3.17;0.85;;;;;;;;;;5022497;28;20042;-76
2022/09/16 10:15:45;;;;;;;5.93;1.67;;;;;;;;;;5023764;28;20049;-75
2022/09/16 10:18:13;;;;;;;3.00;0.80;;;;;;;;;;5021352;28;20050;-74
2022/09/16 10:20:41;;;;;;;4.78;0.93;;;;;;;;;;5025029;28;19924;-74
2022/09/16 10:23:15;;;;;;;3.55;1.30;;;;;;;;;;5023201;28;20496;-73
2022/09/16 10:25:41;;;;;;;3.20;0.80;;;;;;;;;;5023585;28;20045;-73
2022/09/16 10:28:22;;;;;;;2.42;0.90;;;;;;;;;;5023050;28;20206;-75
2022/09/16 10:30:50;;;;;;;1.50;1.00;;;;;;;;;;5023192;28;20061;-74
2022/09/16 10:33:16;;;;;;;;;;;;;;;;;;5023290;28;19921;-74
2022/09/16 10:35:42;;;;;;;;;;;;;;;;;;5024882;28;19924;-73
2022/09/16 10:38:08;;;;;;;;;;;;;;;;;;5023056;28;20485;-73
2022/09/16 10:40:34;;;;;;;;;;;;;;;;;;5023488;28;19921;-73
2022/09/16 10:43:00;;;;;;;;;;;;;;;;;;5021340;28;19928;-74
2022/09/16 10:45:26;;;;;;;;;;;;;;;;;;5022295;28;20455;-73
2022/09/16 10:47:52;;;;;;;;;;;;;;;;;;5017932;28;19932;-74
2022/09/16 10:50:18;;;;;;;;;;;;;;;;;;5022554;28;19991;-75
2022/09/16 10:52:44;;;;;;;;;;;;;;;;;;5024359;28;19982;-74
2022/09/16 10:55:10;;;;;;;;;;;;;;;;;;5024504;28;19927;-74
2022/09/16 10:57:39;;;;;;;;;;;;;;;;;;5022642;28;19973;-75
2022/09/16 11:00:07;;;;;;;;;;;;;;;;;;5022651;28;19921;-74
2022/09/16 11:02:33;;;;;;;;;;;;;;;;;;5015367;28;19928;-76
2022/09/16 11:04:59;;;;;;;;;;;;;;;;;;5021591;28;20016;-76
2022/09/16 11:07:26;;;;;;;;;;;;;;;;;;5021106;28;19924;-76
2022/09/16 11:09:52;;;;;;;;;;;;;;;;;;5022964;28;19932;-77
2022/09/16 11:12:18;;;;;;;;;;;;;;;;;;5023441;28;19945;-76
2022/09/16 11:14:44;;;;;;;;;;;;;;;;;;5023885;28;19921;-76
2022/09/16 11:17:10;;;;;;;;;;;;;;;;;;5024576;28;19925;-76
2022/09/16 11:19:36;;;;;;;;;;;;;;;;;;5024027;28;19921;-76
2022/09/16 11:22:02;;;;;;;;;;;;;;;;;;5021654;28;20446;-76
2022/09/16 11:24:27;;;;;;;;;;;;;;;;;;5024686;28;19925;-76
2022/09/16 11:26:53;;;;;;;;;;;;;;;;;;5024457;28;19961;-76
2022/09/16 11:29:19;;;;;;;;;;;;;;;;;;5022922;28;19924;-76
2022/09/16 11:31:45;;;;;;;;;;;;;;;;;;5024992;28;19929;-76
2022/09/16 11:34:11;;;;;;;;;;;;;;;;;;5022686;28;19979;-76
2022/09/16 11:36:37;;;;;;;;;;;;;;;;;;5023902;28;19971;-77
2022/09/16 11:39:03;;;;;;;;;;;;;;;;;;5023375;28;20452;-77
2022/09/16 11:41:29;;;;;;;;;;;;;;;;;;5022995;28;19933;-77
2022/09/16 11:43:55;;;;;;;;;;;;;;;;;;5023548;28;19932;-77
2022/09/16 11:46:22;;;;;;;;;;;;;;;;;;5023012;28;19921;-77
2022/09/16 11:48:48;;;;;;;;;;;;;;;;;;5022995;28;19975;-78
2022/09/16 11:51:14;;;;;;;;;;;;;;;;;;5024562;28;19972;-77
2022/09/16 11:53:40;;;;;;;;;;;;;;;;;;5024850;28;20047;-77
2022/09/16 11:56:06;;;;;;;;;;;;;;;;;;5023883;28;19968;-77
2022/09/16 11:58:32;;;;;;;;;;;;;;;;;;5024323;28;19931;-76
2022/09/16 12:00:58;;;;;;;;;;;;;;;;;;5020486;28;20295;-77
2022/09/16 12:03:35;;;;;;;9.80;2.60;;;;;;;;;;5021639;28;19921;-75
2022/09/16 12:06:05;;;;;;;5.85;2.25;;;;;;;;;;5015043;28;20488;-76
2022/09/16 12:08:42;;;;;;;5.97;2.00;;;;;;;;;;5015968;28;20054;-76
2022/09/16 12:11:14;;;;;;;6.78;1.98;;;;;;;;;;5016776;28;20473;-76
2022/09/16 12:13:40;;;;;;;;;;;;;;;;;;5025730;28;20417;-75
2022/09/16 12:16:13;;;;;;;6.97;2.08;;;;;;;;;;5022949;28;19933;-75
2022/09/16 12:18:41;;;;;;;;;;;;;;;;;;5021910;28;20559;-75
2022/09/16 12:21:07;;;;;;;;;;;;;;;;;;5026578;28;20453;-75
2022/09/16 12:23:33;;;;;;;;;;;;;;;;;;5025216;28;19920;-75
2022/09/16 12:25:59;;;;;;;;;;;;;;;;;;5025170;28;20483;-75
2022/09/16 12:28:25;;;;;;;;;;;;;;;;;;5017475;28;19936;-75
2022/09/16 12:30:51;;;;;;;;;;;;;;;;;;5024796;28;20370;-75
2022/09/16 12:33:17;;;;;;;;;;;;;;;;;;5025671;28;19932;-75
2022/09/16 12:35:43;;;;;;;;;;;;;;;;;;5027763;28;19944;-76
2022/09/16 12:38:09;;;;;;;;;;;;;;;;;;5014353;28;20388;-75
2022/09/16 12:40:35;;;;;;;;;;;;;;;;;;5027027;28;19925;-76
2022/09/16 12:43:01;;;;;;;;;;;;;;;;;;5026576;28;19921;-76
2022/09/16 12:45:27;;;;;;;;;;;;;;;;;;5021632;28;19925;-76
2022/09/16 12:47:53;;;;;;;;;;;;;;;;;;5022200;28;19925;-76
2022/09/16 12:50:19;;;;;;;;;;;;;;;;;;5018433;28;20383;-76
2022/09/16 12:52:44;;;;;;;;;;;;;;;;;;5020773;28;19929;-76
2022/09/16 12:55:10;;;;;;;;;;;;;;;;;;5019081;28;20345;-76
2022/09/16 12:57:36;;;;;;;;;;;;;;;;;;5025684;28;20330;-76
2022/09/16 13:00:02;;;;;;;;;;;;;;;;;;5020281;28;19929;-76
2022/09/16 13:02:57;;;;;;;2.40;0.60;;;;;;;;;;5019061;28;19921;-76
2022/09/16 13:05:23;;;;;;;1.42;0.60;;;;;;;;;;5012239;28;20045;-76
2022/09/16 13:07:54;;;;;;;3.67;0.55;;;;;;;;;;5020767;28;20064;-75
2022/09/16 13:10:27;;;;;;;3.58;0.88;;;;;;;;;;5016457;28;20041;-75
2022/09/16 13:12:54;;;;;;;4.05;0.50;;;;;;;;;;5022042;28;20049;-76
2022/09/16 13:15:25;;;;;;;1.17;0.40;;;;;;;;;;5014331;28;20488;-76
2022/09/16 13:17:52;;;;;;;3.20;1.00;;;;;;;;;;5019476;28;20539;-76
2022/09/16 13:20:21;;;;;;;4.47;1.10;;;;;;;;;;5021439;28;20270;-76
2022/09/16 13:22:51;;;;;;;2.70;1.08;;;;;;;;;;5017780;28;20077;-75
2022/09/16 13:25:17;;;;;;;2.58;0.55;;;;;;;;;;5017913;28;20428;-75
2022/09/16 13:28:03;;;;;;;3.05;0.40;;;;;;;;;;5023493;28;20080;-76
2022/09/16 13:30:36;;;;;;;2.65;0.77;;;;;;;;;;5011843;28;20053;-76
2022/09/16 13:33:20;;;;;;;0.90;0.45;;;;;;;;;;5020167;28;20734;-75
2022/09/16 13:35:48;;;;;;;0.85;0.30;;;;;;;;;;5024160;28;20059;-75
2022/09/16 13:38:14;;;;;;;1.45;0.65;;;;;;;;;;5025061;28;20042;-75
2022/09/16 13:40:41;;;;;;;2.00;0.65;;;;;;;;;;5019708;28;20087;-75
2022/09/16 13:43:07;;;;;;;1.70;0.73;;;;;;;;;;5018458;28;20105;-74
2022/09/16 13:45:35;;;;;;;3.50;0.70;;;;;;;;;;5024654;28;20279;-74
2022/09/16 13:48:12;;;;;;;2.20;0.95;;;;;;;;;;5015580;28;20662;-75
2022/09/16 13:50:41;;;;;;;3.78;1.02;;;;;;;;;;5025029;28;20076;-75
2022/09/16 13:53:17;;;;;;;3.60;0.82;;;;;;;;;;5024843;28;20154;-74
2022/09/16 13:55:46;;;;;;;4.15;1.23;;;;;;;;;;5025958;28;20041;-75
2022/09/16 13:58:15;;;;;;;5.32;1.08;;;;;;;;;;5026124;28;20046;-76
2022/09/16 14:01:00;;;;;;;2.30;1.10;;;;;;;;;;5024750;28;20052;-75
2022/09/16 14:03:35;;;;;;;4.03;0.80;;;;;;;;;;5022962;28;20045;-74
2022/09/16 14:06:20;;;;;;;1.92;0.80;;;;;;;;;;5015910;28;20034;-76
2022/09/16 14:08:53;;;;;;;3.75;1.30;;;;;;;;;;5012969;28;20725;-75
2022/09/16 14:11:28;;;;;;;5.72;1.05;;;;;;;;;;5020792;28;20083;-74
2022/09/16 14:14:06;;;;;;;3.78;1.02;;;;;;;;;;5018537;28;20049;-75
2022/09/16 14:16:33;;;;;;;2.60;0.68;;;;;;;;;;5019174;28;20042;-77
2022/09/16 14:19:03;;;;;;;4.63;1.15;;;;;;;;;;5014557;28;20044;-75
2022/09/16 14:21:29;;;;;;;3.15;1.05;;;;;;;;;;5017721;28;20061;-77
2022/09/16 14:23:55;;;;;;;5.80;1.17;;;;;;;;;;5023317;28;20049;-77
2022/09/16 14:26:22;;;;;;;5.15;0.80;;;;;;;;;;5022342;28;20052;-77
2022/09/16 14:28:48;;;;;;;4.85;1.13;;;;;;;;;;5022860;28;20053;-77
2022/09/16 14:31:17;;;;;;;2.35;0.90;;;;;;;;;;5012340;28;20118;-77
2022/09/16 14:33:45;;;;;;;2.22;0.77;;;;;;;;;;5022786;28;20136;-76
2022/09/16 14:36:22;;;;;;;4.35;1.17;;;;;;;;;;5023625;28;20056;-76
2022/09/16 14:38:53;;;;;;;8.30;1.42;;;;;;;;;;5022669;28;20143;-75
2022/09/16 14:41:22;;;;;;;4.03;1.25;;;;;;;;;;5023031;28;20167;-76
2022/09/16 14:43:49;;;;;;;4.40;1.35;;;;;;;;;;5022834;28;20583;-75
2022/09/16 14:46:16;;;;;;;4.93;1.30;;;;;;;;;;5024040;28;20640;-73
2022/09/16 14:48:42;;;;;;;5.38;1.00;;;;;;;;;;5025387;28;20675;-74
2022/09/16 14:51:28;;;;;;;3.38;1.20;;;;;;;;;;5024565;28;20045;-70
2022/09/16 14:53:56;;;;;;;4.38;1.55;;;;;;;;;;5025313;28;20056;-75
2022/09/16 14:56:22;;;;;;;4.20;1.45;;;;;;;;;;5025123;28;20068;-75
2022/09/16 14:58:48;;;;;;;3.58;1.35;;;;;;;;;;5023728;28;20049;-76
2022/09/16 15:01:17;;;;;;;5.63;1.40;;;;;;;;;;5023682;28;20139;-76
2022/09/16 15:04:02;;;;;;;4.97;1.77;;;;;;;;;;5025471;28;20107;-74
2022/09/16 15:06:31;;;;;;;3.33;1.08;;;;;;;;;;5023884;28;20061;-75
2022/09/16 15:08:57;;;;;;;6.20;1.50;;;;;;;;;;5023376;28;20144;-74
2022/09/16 15:11:25;;;;;;;4.57;1.33;;;;;;;;;;5023324;28;20063;-74
2022/09/16 15:13:52;;;;;;;3.25;0.95;;;;;;;;;;5025425;28;20586;-75
2022/09/16 15:16:20;;;;;;;4.07;1.58;;;;;;;;;;5022603;28;20042;-78
2022/09/16 15:18:53;;;;;;;2.72;1.02;;;;;;;;;;5023647;28;20049;-75
2022/09/16 15:21:21;;;;;;;4.93;1.20;;;;;;;;;;5019569;28;20056;-74
2022/09/16 15:23:48;;;;;;;1.52;0.60;;;;;;;;;;5024665;28;20119;-74
2022/09/16 15:26:22;;;;;;;2.97;0.95;;;;;;;;;;5021962;28;20107;-74